createdAt,value
2016-11-03T00:00:01.228Z,9.23
2016-11-03T00:01:00.927Z,9.21
2016-11-03T00:02:01.280Z,9.28
2016-11-03T00:03:01.288Z,9.28
2016-11-03T00:04:00.976Z,9.23
2016-11-03T00:05:00.991Z,9.23
2016-11-03T00:06:01.352Z,9.23
2016-11-03T00:07:00.710Z,9.1
2016-11-03T00:08:01.045Z,9.19
2016-11-03T00:09:01.060Z,9.32
2016-11-03T00:10:01.411Z,9.32
2016-11-03T00:11:01.094Z,9.36
2016-11-03T00:12:01.113Z,9.34
2016-11-03T00:13:01.129Z,9.31
2016-11-03T00:14:00.828Z,9.34
2016-11-03T00:15:01.161Z,9.39
2016-11-03T00:16:01.176Z,9.41
2016-11-03T00:17:00.880Z,9.34
2016-11-03T00:18:00.902Z,9.37
2016-11-03T00:19:01.226Z,9.39
2016-11-03T00:20:01.555Z,9.32
2016-11-03T00:21:01.271Z,9.4
2016-11-03T00:22:01.596Z,9.32
2016-11-03T00:23:01.294Z,9.39
2016-11-03T00:24:01.318Z,9.4
2016-11-03T00:25:01.644Z,9.4
2016-11-03T00:26:01.661Z,9.4
2016-11-03T00:27:01.368Z,9.39
2016-11-03T00:28:01.063Z,9.43
2016-11-03T00:29:01.083Z,9.37
2016-11-03T00:30:01.411Z,9.28
2016-11-03T00:31:01.430Z,9.34
2016-11-03T00:32:01.448Z,9.26
2016-11-03T00:33:01.460Z,9.29
2016-11-03T00:34:01.480Z,9.16
2016-11-03T00:35:01.819Z,9.29
2016-11-03T00:36:01.531Z,9.39
2016-11-03T00:37:01.213Z,9.34
2016-11-03T00:38:01.228Z,9.39
2016-11-03T00:39:01.254Z,9.41
2016-11-03T00:40:01.600Z,9.43
2016-11-03T00:41:01.294Z,9.37
2016-11-03T00:42:01.613Z,9.41
2016-11-03T00:43:01.317Z,9.41
2016-11-03T00:44:01.968Z,9.43
2016-11-03T00:45:01.351Z,9.34
2016-11-03T00:46:01.365Z,9.31
2016-11-03T00:47:01.420Z,9.34
2016-11-03T00:48:02.027Z,9.31
2016-11-03T00:49:01.731Z,9.29
2016-11-03T00:50:02.072Z,9.29
2016-11-03T00:51:01.485Z,9.23
2016-11-03T00:52:01.783Z,9.32
2016-11-03T00:53:01.802Z,9.31
2016-11-03T00:54:01.499Z,9.21
2016-11-03T00:55:01.515Z,9.28
2016-11-03T00:56:01.879Z,9.28
2016-11-03T00:57:01.866Z,9.28
2016-11-03T00:58:01.884Z,9.23
2016-11-03T00:59:02.209Z,9.19
2016-11-03T01:00:01.599Z,9.21
2016-11-03T01:01:01.929Z,9.16
2016-11-03T01:02:01.952Z,9.28
2016-11-03T01:03:02.315Z,9.14
2016-11-03T01:04:01.669Z,9.21
2016-11-03T01:05:02.007Z,9.08
2016-11-03T01:06:02.017Z,9.13
2016-11-03T01:07:02.032Z,9.16
2016-11-03T01:08:01.737Z,9.13
2016-11-03T01:09:02.073Z,9.03
2016-11-03T01:10:02.080Z,9.03
2016-11-03T01:11:02.100Z,9
2016-11-03T01:12:02.432Z,8.99
2016-11-03T01:13:02.134Z,8.99
2016-11-03T01:14:01.831Z,8.95
2016-11-03T01:15:02.486Z,9.02
2016-11-03T01:16:02.183Z,9.08
2016-11-03T01:17:01.886Z,9.06
2016-11-03T01:18:02.532Z,9.06
2016-11-03T01:19:02.234Z,9.04
2016-11-03T01:20:02.564Z,8.92
2016-11-03T01:21:02.581Z,8.99
2016-11-03T01:22:02.282Z,8.94
2016-11-03T01:23:02.299Z,9.11
2016-11-03T01:24:02.315Z,9.02
2016-11-03T01:25:02.332Z,8.99
2016-11-03T01:26:02.351Z,9.03
2016-11-03T01:27:02.680Z,8.95
2016-11-03T01:28:02.701Z,9.1
2016-11-03T01:29:02.405Z,9.11
2016-11-03T01:30:02.413Z,8.99
2016-11-03T01:31:02.550Z,8.97
2016-11-03T01:32:02.450Z,9.06
2016-11-03T01:33:02.182Z,9
2016-11-03T01:34:02.175Z,8.95
2016-11-03T01:35:02.181Z,9.03
2016-11-03T01:36:02.199Z,8.99
2016-11-03T01:37:02.528Z,9.11
2016-11-03T01:38:02.881Z,9.03
2016-11-03T01:39:02.886Z,8.97
2016-11-03T01:40:02.896Z,9.04
2016-11-03T01:41:02.915Z,8.94
2016-11-03T01:42:02.298Z,8.99
2016-11-03T01:43:02.314Z,8.97
2016-11-03T01:44:02.332Z,8.97
2016-11-03T01:45:02.667Z,9.02
2016-11-03T01:46:02.743Z,8.92
2016-11-03T01:47:02.710Z,8.94
2016-11-03T01:48:03.039Z,8.92
2016-11-03T01:49:02.892Z,8.94
2016-11-03T01:50:02.430Z,8.82
2016-11-03T01:51:02.449Z,8.81
2016-11-03T01:52:02.461Z,8.84
2016-11-03T01:53:03.118Z,8.78
2016-11-03T01:54:02.813Z,8.78
2016-11-03T01:55:02.515Z,8.71
2016-11-03T01:56:02.535Z,8.76
2016-11-03T01:57:02.861Z,8.81
2016-11-03T01:58:02.876Z,8.76
2016-11-03T01:59:03.212Z,8.64
2016-11-03T02:00:02.913Z,8.73
2016-11-03T02:01:03.242Z,8.73
2016-11-03T02:02:03.261Z,8.67
2016-11-03T02:03:03.271Z,8.67
2016-11-03T02:04:03.020Z,8.69
2016-11-03T02:05:02.677Z,8.73
2016-11-03T02:06:03.330Z,8.69
2016-11-03T02:07:03.424Z,8.6
2016-11-03T02:08:02.729Z,8.63
2016-11-03T02:09:02.742Z,8.6
2016-11-03T02:10:03.074Z,8.6
2016-11-03T02:11:02.815Z,8.55
2016-11-03T02:12:03.106Z,8.58
2016-11-03T02:13:03.145Z,8.44
2016-11-03T02:14:03.143Z,8.46
2016-11-03T02:15:03.157Z,8.48
2016-11-03T02:16:03.484Z,8.45
2016-11-03T02:17:02.878Z,8.6
2016-11-03T02:18:03.205Z,8.46
2016-11-03T02:19:03.534Z,8.49
2016-11-03T02:20:02.920Z,8.48
2016-11-03T02:21:03.254Z,8.37
2016-11-03T02:22:03.588Z,8.38
2016-11-03T02:23:02.965Z,8.41
2016-11-03T02:24:03.301Z,8.36
2016-11-03T02:25:03.315Z,8.44
2016-11-03T02:26:03.344Z,8.34
2016-11-03T02:27:03.350Z,8.45
2016-11-03T02:28:03.365Z,8.37
2016-11-03T02:29:03.698Z,8.38
2016-11-03T02:30:03.088Z,8.42
2016-11-03T02:31:03.730Z,8.41
2016-11-03T02:32:03.428Z,8.41
2016-11-03T02:33:03.760Z,8.38
2016-11-03T02:34:03.804Z,8.37
2016-11-03T02:35:03.165Z,8.27
2016-11-03T02:36:03.811Z,8.19
2016-11-03T02:37:03.826Z,8.27
2016-11-03T02:38:03.549Z,8.34
2016-11-03T02:39:03.245Z,8.33
2016-11-03T02:40:03.558Z,8.33
2016-11-03T02:41:03.259Z,8.26
2016-11-03T02:42:03.615Z,8.2
2016-11-03T02:43:03.813Z,8.24
2016-11-03T02:44:03.627Z,8.26
2016-11-03T02:45:03.958Z,8.15
2016-11-03T02:46:03.657Z,8.24
2016-11-03T02:47:03.988Z,8.1
2016-11-03T02:48:04.008Z,8.13
2016-11-03T02:49:03.704Z,8.15
2016-11-03T02:50:03.409Z,8.1
2016-11-03T02:51:03.420Z,8.15
2016-11-03T02:52:03.756Z,8.2
2016-11-03T02:53:03.771Z,8.13
2016-11-03T02:54:04.097Z,8.19
2016-11-03T02:55:03.799Z,8.13
2016-11-03T02:56:03.826Z,8.1
2016-11-03T02:57:03.519Z,8.2
2016-11-03T02:58:03.547Z,8.13
2016-11-03T02:59:03.871Z,8.15
2016-11-03T03:00:04.245Z,8.12
2016-11-03T03:01:03.587Z,8.09
2016-11-03T03:02:03.600Z,8.23
2016-11-03T03:03:03.954Z,8.08
2016-11-03T03:04:04.262Z,8.13
2016-11-03T03:05:04.280Z,8.15
2016-11-03T03:06:03.672Z,8.23
2016-11-03T03:07:04.308Z,8.15
2016-11-03T03:08:04.323Z,8.12
2016-11-03T03:09:03.722Z,8.08
2016-11-03T03:10:04.096Z,8.13
2016-11-03T03:11:04.057Z,8.05
2016-11-03T03:12:04.073Z,8.12
2016-11-03T03:13:04.410Z,8.13
2016-11-03T03:14:04.105Z,8.13
2016-11-03T03:15:04.453Z,8.16
2016-11-03T03:16:04.139Z,8.12
2016-11-03T03:17:03.840Z,8
2016-11-03T03:18:04.212Z,8.12
2016-11-03T03:19:04.188Z,8.08
2016-11-03T03:20:03.886Z,8.01
2016-11-03T03:21:04.219Z,8.01
2016-11-03T03:22:04.589Z,8.08
2016-11-03T03:23:04.560Z,8.1
2016-11-03T03:24:04.270Z,8.09
2016-11-03T03:25:04.299Z,8.06
2016-11-03T03:26:04.307Z,8.1
2016-11-03T03:27:04.315Z,8.06
2016-11-03T03:28:04.646Z,8.1
2016-11-03T03:29:04.678Z,8.09
2016-11-03T03:30:04.672Z,7.94
2016-11-03T03:31:04.379Z,7.94
2016-11-03T03:32:04.074Z,7.94
2016-11-03T03:33:04.719Z,7.94
2016-11-03T03:34:04.424Z,7.95
2016-11-03T03:35:04.120Z,7.93
2016-11-03T03:36:04.138Z,7.9
2016-11-03T03:37:04.155Z,7.87
2016-11-03T03:38:04.486Z,7.85
2016-11-03T03:39:04.814Z,7.94
2016-11-03T03:40:04.200Z,7.87
2016-11-03T03:41:04.846Z,7.9
2016-11-03T03:42:04.548Z,7.9
2016-11-03T03:43:04.893Z,7.97
2016-11-03T03:44:04.269Z,7.88
2016-11-03T03:45:04.595Z,7.76
2016-11-03T03:46:04.614Z,7.75
2016-11-03T03:47:04.628Z,7.73
2016-11-03T03:48:04.655Z,7.87
2016-11-03T03:49:04.660Z,7.82
2016-11-03T03:50:04.673Z,7.88
2016-11-03T03:51:04.708Z,7.9
2016-11-03T03:52:04.706Z,7.9
2016-11-03T03:53:04.720Z,7.87
2016-11-03T03:54:04.735Z,7.87
2016-11-03T03:55:04.753Z,7.85
2016-11-03T03:56:05.087Z,7.83
2016-11-03T03:57:04.785Z,7.75
2016-11-03T03:58:04.802Z,7.87
2016-11-03T03:59:04.816Z,7.88
2016-11-03T04:00:04.830Z,7.76
2016-11-03T04:01:04.850Z,7.69
2016-11-03T04:02:04.864Z,7.66
2016-11-03T04:03:04.890Z,7.76
2016-11-03T04:04:04.892Z,7.61
2016-11-03T04:05:05.241Z,7.72
2016-11-03T04:06:04.934Z,7.72
2016-11-03T04:07:05.256Z,7.66
2016-11-03T04:08:05.008Z,7.76
2016-11-03T04:09:04.993Z,7.67
2016-11-03T04:10:04.672Z,7.63
2016-11-03T04:11:05.004Z,7.8
2016-11-03T04:12:05.019Z,7.85
2016-11-03T04:13:04.742Z,7.83
2016-11-03T04:14:05.370Z,7.83
2016-11-03T04:15:05.107Z,7.85
2016-11-03T04:16:05.080Z,7.91
2016-11-03T04:17:05.420Z,7.98
2016-11-03T04:18:05.112Z,8.06
2016-11-03T04:19:05.134Z,8
2016-11-03T04:20:04.829Z,7.94
2016-11-03T04:21:05.478Z,7.95
2016-11-03T04:22:05.176Z,7.88
2016-11-03T04:23:05.552Z,7.85
2016-11-03T04:24:05.525Z,7.83
2016-11-03T04:25:05.543Z,7.88
2016-11-03T04:26:05.563Z,7.85
2016-11-03T04:27:05.587Z,7.87
2016-11-03T04:28:05.277Z,7.88
2016-11-03T04:29:04.973Z,7.97
2016-11-03T04:30:05.315Z,7.88
2016-11-03T04:31:05.650Z,8.01
2016-11-03T04:32:05.018Z,7.95
2016-11-03T04:33:05.357Z,8.01
2016-11-03T04:34:05.371Z,7.97
2016-11-03T04:35:05.403Z,7.94
2016-11-03T04:36:05.712Z,7.91
2016-11-03T04:37:05.415Z,7.85
2016-11-03T04:38:05.109Z,7.87
2016-11-03T04:39:05.441Z,7.91
2016-11-03T04:40:05.176Z,7.85
2016-11-03T04:41:05.163Z,7.8
2016-11-03T04:42:05.495Z,7.87
2016-11-03T04:43:05.192Z,7.9
2016-11-03T04:44:05.520Z,7.83
2016-11-03T04:45:05.544Z,7.88
2016-11-03T04:46:05.559Z,7.82
2016-11-03T04:47:05.255Z,7.88
2016-11-03T04:48:05.269Z,7.82
2016-11-03T04:49:05.601Z,7.82
2016-11-03T04:50:05.624Z,7.72
2016-11-03T04:51:05.321Z,7.69
2016-11-03T04:52:05.334Z,7.72
2016-11-03T04:53:05.724Z,7.82
2016-11-03T04:54:05.997Z,7.7
2016-11-03T04:55:05.696Z,7.82
2016-11-03T04:56:05.710Z,7.87
2016-11-03T04:57:05.757Z,7.85
2016-11-03T04:58:05.756Z,7.83
2016-11-03T04:59:05.758Z,7.83
2016-11-03T05:00:05.455Z,7.9
2016-11-03T05:01:05.482Z,7.82
2016-11-03T05:02:05.801Z,7.98
2016-11-03T05:03:05.845Z,7.98
2016-11-03T05:04:05.835Z,7.93
2016-11-03T05:05:05.850Z,7.98
2016-11-03T05:06:05.865Z,8.1
2016-11-03T05:07:05.880Z,8.13
2016-11-03T05:08:05.579Z,8
2016-11-03T05:09:05.592Z,8.09
2016-11-03T05:10:05.929Z,8.03
2016-11-03T05:11:05.632Z,8.01
2016-11-03T05:12:05.655Z,8.09
2016-11-03T05:13:05.996Z,8.09
2016-11-03T05:14:05.993Z,8.06
2016-11-03T05:15:05.690Z,8.03
2016-11-03T05:16:05.703Z,8.13
2016-11-03T05:17:05.737Z,8.13
2016-11-03T05:18:06.055Z,8.1
2016-11-03T05:19:05.752Z,8.2
2016-11-03T05:20:05.789Z,8.16
2016-11-03T05:21:06.098Z,8.1
2016-11-03T05:22:06.115Z,8.12
2016-11-03T05:23:06.129Z,8.09
2016-11-03T05:24:06.155Z,8.03
2016-11-03T05:25:06.166Z,8.01
2016-11-03T05:26:06.179Z,8.1
2016-11-03T05:27:06.200Z,7.97
2016-11-03T05:28:06.521Z,7.97
2016-11-03T05:29:05.911Z,8.1
2016-11-03T05:30:06.237Z,8
2016-11-03T05:31:06.258Z,7.98
2016-11-03T05:32:06.590Z,7.98
2016-11-03T05:33:05.971Z,8.09
2016-11-03T05:34:06.313Z,7.98
2016-11-03T05:35:06.008Z,8.05
2016-11-03T05:36:06.336Z,8.03
2016-11-03T05:37:06.373Z,8.03
2016-11-03T05:38:06.385Z,8
2016-11-03T05:39:06.066Z,8.01
2016-11-03T05:40:06.398Z,7.91
2016-11-03T05:41:06.731Z,7.95
2016-11-03T05:42:06.452Z,7.91
2016-11-03T05:43:06.451Z,7.94
2016-11-03T05:44:06.775Z,7.88
2016-11-03T05:45:06.156Z,7.93
2016-11-03T05:46:06.180Z,7.95
2016-11-03T05:47:06.507Z,7.98
2016-11-03T05:48:06.260Z,7.97
2016-11-03T05:49:06.536Z,7.95
2016-11-03T05:50:06.871Z,7.94
2016-11-03T05:51:06.567Z,7.88
2016-11-03T05:52:06.913Z,7.94
2016-11-03T05:53:06.605Z,7.94
2016-11-03T05:54:06.934Z,7.87
2016-11-03T05:55:06.316Z,7.88
2016-11-03T05:56:06.352Z,7.8
2016-11-03T05:57:06.673Z,7.87
2016-11-03T05:58:06.995Z,7.87
2016-11-03T05:59:06.697Z,7.75
2016-11-03T06:00:06.398Z,7.76
2016-11-03T06:01:06.723Z,7.79
2016-11-03T06:02:06.737Z,7.76
2016-11-03T06:03:06.754Z,7.73
2016-11-03T06:04:06.795Z,7.75
2016-11-03T06:05:06.489Z,7.85
2016-11-03T06:06:07.126Z,7.88
2016-11-03T06:07:07.135Z,7.93
2016-11-03T06:08:07.146Z,7.85
2016-11-03T06:09:06.851Z,7.91
2016-11-03T06:10:06.864Z,7.88
2016-11-03T06:11:06.566Z,7.87
2016-11-03T06:12:06.588Z,7.85
2016-11-03T06:13:06.912Z,7.9
2016-11-03T06:14:07.255Z,7.85
2016-11-03T06:15:06.632Z,7.95
2016-11-03T06:16:06.640Z,7.83
2016-11-03T06:17:06.657Z,7.91
2016-11-03T06:18:07.010Z,7.87
2016-11-03T06:19:07.015Z,7.85
2016-11-03T06:20:07.023Z,7.98
2016-11-03T06:21:06.720Z,7.94
2016-11-03T06:22:06.736Z,7.98
2016-11-03T06:23:07.065Z,7.97
2016-11-03T06:24:07.397Z,8
2016-11-03T06:25:07.100Z,7.93
2016-11-03T06:26:06.803Z,7.95
2016-11-03T06:27:07.127Z,7.88
2016-11-03T06:28:06.831Z,7.94
2016-11-03T06:29:07.480Z,8
2016-11-03T06:30:07.175Z,8.03
2016-11-03T06:31:06.877Z,8.1
2016-11-03T06:32:07.212Z,8.12
2016-11-03T06:33:07.224Z,8.03
2016-11-03T06:34:06.922Z,8.01
2016-11-03T06:35:07.252Z,8.01
2016-11-03T06:36:06.954Z,8.06
2016-11-03T06:37:06.970Z,8.08
2016-11-03T06:38:07.301Z,8.05
2016-11-03T06:39:07.316Z,8.05
2016-11-03T06:40:07.356Z,8.19
2016-11-03T06:41:07.050Z,8.19
2016-11-03T06:42:07.363Z,8.09
2016-11-03T06:43:07.405Z,8.19
2016-11-03T06:44:07.737Z,8.16
2016-11-03T06:45:07.095Z,8.13
2016-11-03T06:46:07.107Z,8.18
2016-11-03T06:47:07.475Z,8.15
2016-11-03T06:48:07.460Z,8.2
2016-11-03T06:49:07.508Z,8.19
2016-11-03T06:50:07.490Z,8.26
2016-11-03T06:51:07.501Z,8.28
2016-11-03T06:52:07.523Z,8.28
2016-11-03T06:53:07.540Z,8.3
2016-11-03T06:54:07.244Z,8.28
2016-11-03T06:55:07.566Z,8.27
2016-11-03T06:56:07.272Z,8.34
2016-11-03T06:57:07.281Z,8.36
2016-11-03T06:58:07.633Z,8.26
2016-11-03T06:59:07.348Z,8.33
2016-11-03T07:00:07.646Z,8.28
2016-11-03T07:01:07.663Z,8.36
2016-11-03T07:02:07.988Z,8.34
2016-11-03T07:03:07.720Z,8.33
2016-11-03T07:04:08.025Z,8.28
2016-11-03T07:05:07.723Z,8.31
2016-11-03T07:06:08.058Z,8.28
2016-11-03T07:07:07.752Z,8.41
2016-11-03T07:08:08.124Z,8.38
2016-11-03T07:09:07.783Z,8.34
2016-11-03T07:10:07.489Z,8.33
2016-11-03T07:11:07.503Z,8.28
2016-11-03T07:12:07.519Z,8.45
2016-11-03T07:13:07.851Z,8.42
2016-11-03T07:14:08.178Z,8.46
2016-11-03T07:15:07.887Z,8.44
2016-11-03T07:16:08.230Z,8.37
2016-11-03T07:17:07.911Z,8.42
2016-11-03T07:18:07.617Z,8.44
2016-11-03T07:19:07.945Z,8.44
2016-11-03T07:20:07.959Z,8.49
2016-11-03T07:21:07.989Z,8.49
2016-11-03T07:22:07.990Z,8.46
2016-11-03T07:23:08.007Z,8.52
2016-11-03T07:24:08.358Z,8.45
2016-11-03T07:25:08.051Z,8.52
2016-11-03T07:26:07.771Z,8.56
2016-11-03T07:27:08.066Z,8.53
2016-11-03T07:28:07.774Z,8.6
2016-11-03T07:29:07.795Z,8.53
2016-11-03T07:30:08.118Z,8.58
2016-11-03T07:31:08.451Z,8.49
2016-11-03T07:32:08.150Z,8.6
2016-11-03T07:33:07.870Z,8.61
2016-11-03T07:34:08.188Z,8.63
2016-11-03T07:35:08.198Z,8.61
2016-11-03T07:36:07.896Z,8.67
2016-11-03T07:37:07.916Z,8.7
2016-11-03T07:38:08.572Z,8.67
2016-11-03T07:39:07.949Z,8.73
2016-11-03T07:40:08.592Z,8.76
2016-11-03T07:41:08.609Z,8.74
2016-11-03T07:42:08.366Z,8.81
2016-11-03T07:43:08.011Z,8.84
2016-11-03T07:44:08.342Z,8.84
2016-11-03T07:45:08.362Z,8.84
2016-11-03T07:46:08.393Z,8.84
2016-11-03T07:47:08.396Z,8.84
2016-11-03T07:48:08.405Z,8.87
2016-11-03T07:49:08.421Z,8.91
2016-11-03T07:50:08.159Z,8.97
2016-11-03T07:51:08.454Z,8.97
2016-11-03T07:52:08.782Z,8.97
2016-11-03T07:53:08.168Z,8.97
2016-11-03T07:54:08.517Z,9.02
2016-11-03T07:55:08.519Z,8.81
2016-11-03T07:56:08.537Z,8.79
2016-11-03T07:57:08.548Z,8.78
2016-11-03T07:58:08.568Z,8.74
2016-11-03T07:59:08.578Z,8.84
2016-11-03T08:00:08.280Z,8.79
2016-11-03T08:01:08.928Z,8.89
2016-11-03T08:02:08.623Z,8.95
2016-11-03T08:03:08.640Z,9.04
2016-11-03T08:04:08.660Z,9.03
2016-11-03T08:05:08.679Z,9
2016-11-03T08:06:08.689Z,9.02
2016-11-03T08:07:09.032Z,9.02
2016-11-03T08:08:08.415Z,9.1
2016-11-03T08:09:08.739Z,9.1
2016-11-03T08:10:08.753Z,9.1
2016-11-03T08:11:08.453Z,9.16
2016-11-03T08:12:08.792Z,9.19
2016-11-03T08:13:08.495Z,9.04
2016-11-03T08:14:08.822Z,9.14
2016-11-03T08:15:08.849Z,9.21
2016-11-03T08:16:08.858Z,9.13
2016-11-03T08:17:08.867Z,9.26
2016-11-03T08:18:08.883Z,9.19
2016-11-03T08:19:08.582Z,9.23
2016-11-03T08:20:08.599Z,9.29
2016-11-03T08:21:08.937Z,9.29
2016-11-03T08:22:08.950Z,9.32
2016-11-03T08:23:08.653Z,9.34
2016-11-03T08:24:09.295Z,9.36
2016-11-03T08:25:08.681Z,9.4
2016-11-03T08:26:09.336Z,9.4
2016-11-03T08:27:09.356Z,9.44
2016-11-03T08:28:08.730Z,9.43
2016-11-03T08:29:09.065Z,9.37
2016-11-03T08:30:09.094Z,9.46
2016-11-03T08:31:09.096Z,9.4
2016-11-03T08:32:09.432Z,9.43
2016-11-03T08:33:09.445Z,9.47
2016-11-03T08:34:08.832Z,9.62
2016-11-03T08:35:08.843Z,9.58
2016-11-03T08:36:09.174Z,9.66
2016-11-03T08:37:09.532Z,9.68
2016-11-03T08:38:08.901Z,9.68
2016-11-03T08:39:09.544Z,9.74
2016-11-03T08:40:09.240Z,9.72
2016-11-03T08:41:08.941Z,9.65
2016-11-03T08:42:09.588Z,9.76
2016-11-03T08:43:23.872Z,9.79
2016-11-03T08:44:09.627Z,9.79
2016-11-03T08:45:09.664Z,9.82
2016-11-03T08:46:09.039Z,9.92
2016-11-03T08:47:09.360Z,9.87
2016-11-03T08:48:09.058Z,9.82
2016-11-03T08:49:09.079Z,9.89
2016-11-03T08:50:09.445Z,9.95
2016-11-03T08:51:09.425Z,9.87
2016-11-03T08:52:09.451Z,10.01
2016-11-03T08:53:09.483Z,9.97
2016-11-03T08:54:09.489Z,9.95
2016-11-03T08:55:09.807Z,9.98
2016-11-03T08:56:09.509Z,9.99
2016-11-03T08:57:09.525Z,10.04
2016-11-03T08:58:09.539Z,10.02
2016-11-03T08:59:09.244Z,10.1
2016-11-03T09:00:09.268Z,10.1
2016-11-03T09:01:09.280Z,10.16
2016-11-03T09:02:09.292Z,10.19
2016-11-03T09:03:09.952Z,10.12
2016-11-03T09:04:09.640Z,10.28
2016-11-03T09:05:09.345Z,10.3
2016-11-03T09:06:10.003Z,10.3
2016-11-03T09:07:10.013Z,10.35
2016-11-03T09:08:09.714Z,10.4
2016-11-03T09:09:09.727Z,10.49
2016-11-03T09:10:09.789Z,10.53
2016-11-03T09:11:09.445Z,10.75
2016-11-03T09:12:09.781Z,10.97
2016-11-03T09:13:09.816Z,11.26
2016-11-03T09:14:09.820Z,11.54
2016-11-03T09:15:09.525Z,11.48
2016-11-03T09:16:09.855Z,11.55
2016-11-03T09:17:10.192Z,11.72
2016-11-03T09:18:09.925Z,11.77
2016-11-03T09:19:09.917Z,11.84
2016-11-03T09:20:09.953Z,11.75
2016-11-03T09:21:09.937Z,11.72
2016-11-03T09:22:09.974Z,11.77
2016-11-03T09:23:09.760Z,11.81
2016-11-03T09:24:10.316Z,11.84
2016-11-03T09:25:10.036Z,11.68
2016-11-03T09:26:10.125Z,11.77
2016-11-03T09:27:10.060Z,11.84
2016-11-03T09:28:09.747Z,11.94
2016-11-03T09:29:09.791Z,12
2016-11-03T09:30:09.794Z,12.09
2016-11-03T09:31:10.115Z,12.21
2016-11-03T09:32:09.826Z,12.29
2016-11-03T09:33:10.163Z,12.54
2016-11-03T09:34:09.858Z,12.78
2016-11-03T09:35:10.518Z,12.85
2016-11-03T09:36:09.898Z,12.98
2016-11-03T09:37:10.234Z,13.05
2016-11-03T09:38:10.245Z,13.08
2016-11-03T09:39:10.268Z,13.15
2016-11-03T09:40:10.176Z,13.23
2016-11-03T09:41:10.623Z,13.28
2016-11-03T09:42:10.685Z,13.46
2016-11-03T09:43:10.660Z,13.6
2016-11-03T09:44:10.381Z,13.7
2016-11-03T09:45:10.377Z,13.75
2016-11-03T09:46:10.724Z,13.79
2016-11-03T09:47:10.142Z,13.81
2016-11-03T09:48:10.471Z,13.87
2016-11-03T09:49:10.481Z,13.83
2016-11-03T09:50:10.487Z,13.74
2016-11-03T09:51:10.815Z,13.83
2016-11-03T09:52:10.245Z,13.77
2016-11-03T09:53:10.559Z,13.81
2016-11-03T09:54:10.600Z,13.78
2016-11-03T09:55:10.603Z,13.83
2016-11-03T09:56:10.616Z,13.86
2016-11-03T09:57:10.312Z,13.93
2016-11-03T09:58:10.644Z,13.95
2016-11-03T09:59:10.666Z,13.85
2016-11-03T10:00:10.683Z,13.87
2016-11-03T10:01:10.699Z,13.96
2016-11-03T10:02:10.721Z,14.12
2016-11-03T10:03:10.423Z,14.18
2016-11-03T10:04:10.763Z,14.32
2016-11-03T10:05:11.093Z,14.25
2016-11-03T10:06:10.486Z,14.07
2016-11-03T10:07:10.832Z,14.15
2016-11-03T10:08:11.207Z,14.3
2016-11-03T10:09:10.555Z,14.08
2016-11-03T10:10:10.565Z,14.07
2016-11-03T10:11:10.907Z,13.92
2016-11-03T10:12:10.603Z,13.81
2016-11-03T10:13:10.688Z,13.92
2016-11-03T10:14:10.974Z,13.86
2016-11-03T10:15:10.682Z,13.7
2016-11-03T10:16:11.004Z,13.65
2016-11-03T10:17:11.342Z,13.85
2016-11-03T10:18:11.373Z,14.05
2016-11-03T10:19:11.419Z,14.17
2016-11-03T10:20:11.083Z,14.26
2016-11-03T10:21:11.133Z,14.23
2016-11-03T10:22:11.119Z,13.97
2016-11-03T10:23:11.459Z,13.87
2016-11-03T10:24:10.877Z,13.9
2016-11-03T10:25:11.186Z,13.83
2016-11-03T10:26:11.522Z,13.78
2016-11-03T10:27:10.960Z,13.77
2016-11-03T10:28:11.244Z,13.86
2016-11-03T10:29:11.268Z,13.71
2016-11-03T10:30:11.605Z,13.72
2016-11-03T10:31:11.300Z,13.68
2016-11-03T10:32:11.333Z,13.71
2016-11-03T10:33:11.343Z,13.75
2016-11-03T10:34:11.387Z,13.72
2016-11-03T10:35:11.068Z,13.65
2016-11-03T10:36:11.408Z,13.57
2016-11-03T10:37:11.433Z,13.47
2016-11-03T10:38:11.773Z,13.37
2016-11-03T10:39:11.162Z,13.42
2016-11-03T10:40:11.801Z,13.3
2016-11-03T10:41:11.499Z,13.15
2016-11-03T10:42:11.204Z,13.04
2016-11-03T10:43:11.536Z,13.08
2016-11-03T10:44:11.910Z,13.08
2016-11-03T10:45:11.896Z,13.12
2016-11-03T10:46:11.608Z,13.01
2016-11-03T10:47:11.304Z,13.04
2016-11-03T10:48:11.635Z,13.04
2016-11-03T10:49:11.683Z,12.97
2016-11-03T10:50:11.689Z,12.98
2016-11-03T10:51:11.691Z,13.13
2016-11-03T10:52:12.069Z,13.09
2016-11-03T10:53:11.736Z,12.94
2016-11-03T10:54:11.447Z,12.85
2016-11-03T10:55:12.083Z,12.91
2016-11-03T10:56:11.793Z,12.98
2016-11-03T10:57:11.501Z,12.97
2016-11-03T10:58:11.850Z,12.83
2016-11-03T10:59:11.852Z,12.78
2016-11-03T11:00:11.899Z,12.64
2016-11-03T11:01:12.213Z,12.73
2016-11-03T11:02:11.913Z,12.57
2016-11-03T11:03:11.938Z,12.68
2016-11-03T11:04:12.253Z,12.82
2016-11-03T11:05:12.280Z,12.93
2016-11-03T11:06:11.665Z,13.08
2016-11-03T11:07:12.021Z,13.15
2016-11-03T11:08:11.709Z,13.13
2016-11-03T11:09:12.037Z,13.08
2016-11-03T11:10:11.744Z,13
2016-11-03T11:11:12.074Z,12.91
2016-11-03T11:12:12.410Z,12.83
2016-11-03T11:13:11.807Z,12.9
2016-11-03T11:14:11.830Z,12.93
2016-11-03T11:15:12.168Z,12.98
2016-11-03T11:16:11.859Z,12.95
2016-11-03T11:17:12.199Z,12.98
2016-11-03T11:18:12.221Z,12.98
2016-11-03T11:19:11.923Z,13.13
2016-11-03T11:20:12.565Z,13.38
2016-11-03T11:21:12.583Z,13.67
2016-11-03T11:22:12.632Z,13.77
2016-11-03T11:23:11.996Z,13.77
2016-11-03T11:24:12.341Z,13.85
2016-11-03T11:25:12.660Z,13.85
2016-11-03T11:26:12.365Z,13.85
2016-11-03T11:27:12.396Z,14.07
2016-11-03T11:28:12.727Z,14.03
2016-11-03T11:29:12.755Z,14.23
2016-11-03T11:30:12.791Z,14.28
2016-11-03T11:31:12.469Z,14.33
2016-11-03T11:32:12.823Z,14.43
2016-11-03T11:33:12.191Z,14.54
2016-11-03T11:34:12.526Z,14.7
2016-11-03T11:35:12.887Z,14.72
2016-11-03T11:36:12.589Z,14.88
2016-11-03T11:37:12.911Z,14.88
2016-11-03T11:38:12.287Z,14.6
2016-11-03T11:39:12.647Z,14.07
2016-11-03T11:40:13.026Z,14.08
2016-11-03T11:41:12.370Z,14.1
2016-11-03T11:42:12.368Z,14.1
2016-11-03T11:43:12.726Z,14.29
2016-11-03T11:44:12.419Z,14.37
2016-11-03T11:45:12.765Z,14.3
2016-11-03T11:46:12.768Z,14.32
2016-11-03T11:47:13.112Z,14.53
2016-11-03T11:48:12.572Z,14.69
2016-11-03T11:49:12.513Z,14.78
2016-11-03T11:50:12.855Z,14.86
2016-11-03T11:51:13.194Z,14.92
2016-11-03T11:52:12.893Z,15.06
2016-11-03T11:53:12.596Z,15.09
2016-11-03T11:54:12.945Z,15.07
2016-11-03T11:55:12.646Z,15.17
2016-11-03T11:56:13.321Z,15.09
2016-11-03T11:57:13.011Z,15.15
2016-11-03T11:58:12.698Z,14.81
2016-11-03T11:59:12.731Z,14.81
2016-11-03T12:00:12.755Z,14.72
2016-11-03T12:01:12.765Z,14.77
2016-11-03T12:02:13.103Z,14.69
2016-11-03T12:03:13.472Z,14.82
2016-11-03T12:04:12.816Z,14.7
2016-11-03T12:05:13.484Z,14.72
2016-11-03T12:06:13.497Z,14.73
2016-11-03T12:07:13.204Z,14.79
2016-11-03T12:08:13.232Z,14.82
2016-11-03T12:09:12.934Z,14.72
2016-11-03T12:10:13.272Z,14.94
2016-11-03T12:11:13.294Z,15.1
2016-11-03T12:12:12.988Z,15.06
2016-11-03T12:13:13.641Z,15.04
2016-11-03T12:14:13.348Z,15.06
2016-11-03T12:15:13.406Z,15.15
2016-11-03T12:16:13.072Z,15.06
2016-11-03T12:17:13.094Z,15.14
2016-11-03T12:18:13.747Z,15.19
2016-11-03T12:19:13.456Z,15.37
2016-11-03T12:20:13.474Z,15.44
2016-11-03T12:21:13.188Z,15.55
2016-11-03T12:22:13.513Z,15.58
2016-11-03T12:23:13.547Z,15.64
2016-11-03T12:24:13.576Z,15.57
2016-11-03T12:25:13.573Z,15.47
2016-11-03T12:26:13.283Z,15.43
2016-11-03T12:27:13.305Z,15.52
2016-11-03T12:28:13.958Z,15.55
2016-11-03T12:29:13.658Z,15.7
2016-11-03T12:30:13.676Z,15.68
2016-11-03T12:31:13.698Z,15.54
2016-11-03T12:32:13.727Z,15.37
2016-11-03T12:33:13.750Z,15.36
2016-11-03T12:34:13.448Z,15.47
2016-11-03T12:35:14.114Z,15.54
2016-11-03T12:36:14.131Z,15.68
2016-11-03T12:37:13.529Z,15.88
2016-11-03T12:38:13.535Z,15.95
2016-11-03T12:39:13.564Z,15.98
2016-11-03T12:40:13.891Z,16.04
2016-11-03T12:41:13.915Z,16.17
2016-11-03T12:42:13.622Z,16.16
2016-11-03T12:43:14.278Z,16.23
2016-11-03T12:44:14.301Z,16.32
2016-11-03T12:45:13.685Z,16.36
2016-11-03T12:46:14.022Z,16.36
2016-11-03T12:47:14.040Z,16.39
2016-11-03T12:48:14.066Z,16.5
2016-11-03T12:49:14.085Z,16.56
2016-11-03T12:50:14.428Z,16.56
2016-11-03T12:51:14.450Z,16.56
2016-11-03T12:52:13.843Z,16.49
2016-11-03T12:53:14.197Z,16.56
2016-11-03T12:54:14.527Z,16.68
2016-11-03T12:55:14.234Z,16.42
2016-11-03T12:56:14.588Z,16.36
2016-11-03T12:57:14.605Z,16.38
2016-11-03T12:58:13.983Z,16.54
2016-11-03T12:59:14.638Z,16.47
2016-11-03T13:00:14.014Z,16.56
2016-11-03T13:01:14.351Z,16.42
2016-11-03T13:02:14.096Z,16.6
2016-11-03T13:03:14.093Z,16.71
2016-11-03T13:04:14.442Z,16.58
2016-11-03T13:05:14.448Z,16.64
2016-11-03T13:06:14.479Z,16.64
2016-11-03T13:07:14.800Z,16.61
2016-11-03T13:08:14.203Z,16.56
2016-11-03T13:09:14.212Z,16.68
2016-11-03T13:10:14.873Z,16.71
2016-11-03T13:11:14.272Z,16.5
2016-11-03T13:12:14.605Z,16.61
2016-11-03T13:13:14.614Z,16.41